Time;durP1;ratioP1;P1;durP2;ratioP2;P2;SDS_P1;SDS_P2;PMS_P1;PMS_P2;Temp;Humidity;BMP_temperature;BMP_pressure;BME280_temperature;BME280_humidity;BME280_pressure;Samples;Min_cycle;Max_cycle;Signal;HPM_P1;HPM_P2
2022/08/07 00:01:01;;;;;;;5.50;2.83;;;;;;;22.01;51.05;100008.66;7631158;32;37101;-75
2022/08/07 00:05:37;;;;;;;4.18;2.08;;;;;;;22.15;50.92;100011.13;7630329;32;40670;-75
2022/08/07 00:09:53;;;;;;;2.40;2.20;;;;;;;22.18;50.99;100004.06;7630802;32;40966;-75
2022/08/07 00:14:30;;;;;;;3.55;2.67;;;;;;;22.41;50.17;100007.25;7630178;32;39360;-74
2022/08/07 00:18:46;;;;;;;6.62;2.67;;;;;;;22.48;50.06;100007.47;7630506;32;37191;-74
2022/08/07 00:23:05;;;;;;;3.25;2.45;;;;;;;22.35;50.51;100014.19;7630415;32;39441;-75
2022/08/07 00:27:23;;;;;;;2.75;2.50;;;;;;;22.28;50.62;100010.03;7632664;32;40776;-75
2022/08/07 00:31:42;;;;;;;5.00;3.50;;;;;;;22.21;50.64;100014.47;7633722;32;38278;-74
2022/08/07 00:36:05;;;;;;;3.72;2.70;;;;;;;22.52;49.74;100016.72;7633418;32;37075;-75
2022/08/07 00:40:21;;;;;;;6.43;2.65;;;;;;;22.52;49.98;100002.84;7633664;32;40076;-74
2022/08/07 00:44:55;;;;;;;3.85;2.85;;;;;;;22.58;49.92;100014.56;7633498;32;40229;-75
2022/08/07 00:49:12;;;;;;;4.95;2.95;;;;;;;22.45;50.32;100008.97;7633163;32;38728;-74
2022/08/07 00:53:48;;;;;;;4.65;2.90;;;;;;;22.58;50.14;100006.22;7633444;32;37807;-74
2022/08/07 00:58:09;;;;;;;4.20;3.05;;;;;;;22.69;49.58;100002.59;7633539;32;39319;-75
2022/08/07 01:02:26;;;;;;;4.62;3.20;;;;;;;22.53;50.10;100003.66;7633302;32;40847;-73
2022/08/07 01:06:46;;;;;;;4.15;3.00;;;;;;;22.59;50.01;100000.28;7633082;32;38687;-74
2022/08/07 01:11:02;;;;;;;4.75;2.92;;;;;;;22.68;49.78;100002.97;7620391;32;37105;-75
2022/08/07 01:15:38;;;;;;;4.50;2.80;;;;;;;22.58;49.79;100011.78;7621889;32;39484;-75
2022/08/07 01:20:15;;;;;;;5.35;3.45;;;;;;;22.44;50.15;100012.91;7632579;32;40165;-75
2022/08/07 01:24:32;;;;;;;5.87;3.40;;;;;;;22.48;49.94;100010.25;7632948;32;38586;-76
2022/08/07 01:28:52;;;;;;;8.60;3.78;;;;;;;22.44;50.01;100007.38;7633058;32;36937;-74
2022/08/07 01:33:08;;;;;;;5.82;3.40;;;;;;;22.26;50.68;100005.91;7619737;32;39318;-76
2022/08/07 01:37:25;;;;;;;4.97;3.20;;;;;;;22.37;50.11;100001.56;7632484;32;39882;-76
2022/08/07 01:41:44;;;;;;;4.75;3.50;;;;;;;22.48;49.91;100002.72;7624341;32;37754;-74
2022/08/07 01:46:21;;;;;;;5.72;3.30;;;;;;;22.49;50.10;100009.09;7647341;32;37392;-75
2022/08/07 01:50:39;;;;;;;6.15;3.80;;;;;;;22.18;50.71;100013.22;7659006;32;39181;-74
2022/08/07 01:54:59;;;;;;;5.20;3.55;;;;;;;22.11;50.87;100005.44;7645877;32;40580;-74
2022/08/07 01:59:31;;;;;;;7.45;3.90;;;;;;;22.23;50.62;100006.59;7645840;32;38028;-74
2022/08/07 02:03:57;;;;;;;6.22;3.60;;;;;;;22.11;50.86;100004.62;7658771;32;37925;-74
2022/08/07 02:08:16;;;;;;;5.72;3.92;;;;;;;22.11;50.90;100016.56;7634612;32;39396;-74
2022/08/07 02:12:38;;;;;;;6.12;3.70;;;;;;;22.04;50.95;100013.53;7619531;32;39690;-74
2022/08/07 02:16:55;;;;;;;5.70;3.72;;;;;;;21.88;51.36;100024.47;7632482;32;38009;-75
2022/08/07 02:21:14;;;;;;;6.30;3.85;;;;;;;21.74;51.79;100024.75;7619337;32;37783;-75
2022/08/07 02:25:33;;;;;;;8.43;4.00;;;;;;;21.72;51.83;100017.94;7619256;32;39461;-74
2022/08/07 02:30:11;;;;;;;5.78;3.78;;;;;;;21.87;51.33;100017.31;7631943;32;41426;-74
2022/08/07 02:34:30;;;;;;;6.18;3.90;;;;;;;21.88;51.75;100012.56;7632196;32;38041;-74
2022/08/07 02:38:46;;;;;;;6.45;4.22;;;;;;;21.97;51.33;100009.69;7619923;32;37062;-74
2022/08/07 02:43:13;;;;;;;7.07;4.15;;;;;;;21.97;51.58;100013.25;7619961;32;40634;-75
2022/08/07 02:47:29;;;;;;;7.05;3.95;;;;;;;21.74;51.91;100010.91;7618183;32;40857;-74
2022/08/07 02:52:03;;;;;;;6.78;4.32;;;;;;;21.74;51.94;100013.66;7632137;32;38663;-75
2022/08/07 02:56:21;;;;;;;5.62;3.83;;;;;;;21.67;52.12;100018.16;7632093;32;37138;-75
2022/08/07 03:00:44;;;;;;;6.90;3.92;;;;;;;21.82;51.74;100013.91;7619352;32;40075;-74
2022/08/07 03:05:02;;;;;;;6.45;3.97;;;;;;;21.86;51.73;100003.78;7631933;32;40665;-74
2022/08/07 03:09:21;;;;;;;7.07;4.20;;;;;;;21.84;51.92;100017.19;7618762;32;37938;-74
2022/08/07 03:13:57;;;;;;;5.97;3.97;;;;;;;21.76;52.10;100016.91;7644214;32;37434;-75
2022/08/07 03:18:17;;;;;;;6.87;4.00;;;;;;;21.78;51.94;100018.53;7658055;32;39193;-74
2022/08/07 03:22:41;;;;;;;5.57;3.80;;;;;;;21.89;51.47;100011.41;7657906;32;40216;-74
2022/08/07 03:27:06;;;;;;;7.72;4.37;;;;;;;21.68;52.12;100020.59;7645208;32;37885;-74
2022/08/07 03:31:25;;;;;;;6.45;4.10;;;;;;;21.65;52.06;100034.34;7657893;32;38291;-73
2022/08/07 03:35:58;;;;;;;4.40;3.22;;;;;;;21.64;52.24;100035.47;7645322;32;40053;-74
2022/08/07 03:40:17;;;;;;;7.22;3.83;;;;;;;21.60;52.50;100040.91;7657603;32;40022;-74
2022/08/07 03:44:37;;;;;;;7.00;3.78;;;;;;;21.64;51.90;100036.28;7644364;32;37962;-74
2022/08/07 03:48:54;;;;;;;9.23;3.95;;;;;;;21.55;52.36;100041.09;7644206;32;36856;-74
2022/08/07 03:53:18;;;;;;;6.05;3.80;;;;;;;21.52;52.30;100037.03;7657465;32;39195;-75
2022/08/07 03:57:54;;;;;;;5.85;3.60;;;;;;;21.61;52.23;100039.75;7656841;32;40085;-74
2022/08/07 04:02:30;;;;;;;6.40;3.53;;;;;;;21.68;51.91;100042.78;7642236;32;39306;-75
2022/08/07 04:06:47;;;;;;;5.37;3.60;;;;;;;21.64;52.21;100050.16;7617365;32;37283;-75
2022/08/07 04:11:07;;;;;;;8.93;4.10;;;;;;;21.68;52.34;100042.78;7630869;32;40126;-75
2022/08/07 04:15:43;;;;;;;7.95;4.15;;;;;;;21.63;52.12;100051.31;7619271;32;41496;-74
2022/08/07 04:20:00;;;;;;;7.70;4.18;;;;;;;21.91;51.73;100045.19;7630503;32;37792;-74
2022/08/07 04:24:16;;;;;;;6.18;3.78;;;;;;;21.82;52.12;100052.75;7616951;32;37745;-74
2022/08/07 04:28:49;;;;;;;6.03;3.97;;;;;;;21.67;52.37;100057.81;7621045;32;39380;-74
2022/08/07 04:33:08;;;;;;;5.03;3.45;;;;;;;21.97;51.60;100060.44;7656499;32;39829;-73
2022/08/07 04:37:24;;;;;;;9.40;3.42;;;;;;;21.48;52.83;100071.34;7656070;32;39767;-74
2022/08/07 04:41:43;;;;;;;6.05;3.87;;;;;;;21.59;53.21;100072.56;7632822;32;37263;-74
2022/08/07 04:46:27;;;;;;;8.40;3.95;;;;;;;21.71;53.13;100060.72;7629850;32;39355;-74
2022/08/07 04:51:08;;;;;;;7.00;3.90;;;;;;;21.97;51.82;100071.56;7619451;32;40638;-74
2022/08/07 04:55:29;;;;;;;8.70;3.78;;;;;;;21.98;51.79;100075.97;7617277;32;38469;-73
2022/08/07 05:00:06;;;;;;;4.47;3.37;;;;;;;22.05;51.57;100079.00;7638164;32;37471;-73
2022/08/07 05:04:49;;;;;;;6.18;3.75;;;;;;;22.06;51.53;100069.53;7655652;32;39359;-74
2022/08/07 05:09:25;;;;;;;5.50;3.55;;;;;;;22.23;51.20;100068.53;7655574;32;40096;-74
2022/08/07 05:14:10;;;;;;;8.85;3.92;;;;;;;22.17;51.95;100074.63;7622517;32;37650;-74
2022/08/07 05:18:55;;;;;;;7.68;3.92;;;;;;;22.38;51.46;100074.59;7622511;32;37206;-73
2022/08/07 05:23:19;;;;;;;4.82;3.42;;;;;;;22.58;50.42;100081.22;7619950;32;39387;-73
2022/08/07 05:27:46;;;;;;;7.87;3.75;;;;;;;22.35;51.01;100081.63;7637887;32;40499;-74
2022/08/07 05:32:25;;;;;;;7.80;4.12;;;;;;;22.65;50.58;100075.91;7647417;32;39102;-74
2022/08/07 05:36:47;;;;;;;5.75;3.65;;;;;;;22.75;50.72;100081.00;7645838;32;38082;-74
2022/08/07 05:41:08;;;;;;;6.75;3.60;;;;;;;23.07;49.50;100078.47;7646291;32;39338;-74
2022/08/07 05:45:32;;;;;;;4.35;3.25;;;;;;;23.22;48.84;100088.88;7646536;32;40013;-73
2022/08/07 05:50:02;;;;;;;6.62;3.25;;;;;;;23.40;48.75;100089.44;7659059;32;37883;-74
2022/08/07 05:54:20;;;;;;;4.85;3.20;;;;;;;23.44;48.19;100086.75;7659017;32;37040;-74
2022/08/07 05:58:58;;;;;;;6.43;3.40;;;;;;;23.60;48.06;100095.97;7635427;32;40535;-75
2022/08/07 06:03:17;;;;;;;4.85;3.10;;;;;;;23.47;48.46;100088.81;7632669;32;40070;-74
2022/08/07 06:07:34;;;;;;;9.63;3.58;;;;;;;22.98;49.80;100094.44;7619144;32;38850;-79
2022/08/07 06:12:10;;;;;;;5.37;3.03;;;;;;;23.41;48.92;100093.00;7621273;32;38224;-77
2022/08/07 06:16:32;;;;;;;4.65;2.62;;;;;;;23.61;48.09;100096.78;7619558;32;39128;-73
2022/08/07 06:20:49;;;;;;;4.75;2.95;;;;;;;23.69;47.74;100086.66;7632524;32;40044;-74
2022/08/07 06:25:25;;;;;;;5.75;2.40;;;;;;;23.57;47.51;100091.09;7652561;32;39170;-76
2022/08/07 06:29:41;;;;;;;2.85;1.55;;;;;;;24.06;45.14;100089.31;7658743;32;37141;-77
2022/08/07 06:33:57;;;;;;;1.20;0.95;;;;;;;24.22;41.51;100083.81;7658532;32;40202;-73
2022/08/07 06:38:13;;;;;;;10.00;1.48;;;;;;;24.52;39.82;100095.31;7658404;32;40114;-76
2022/08/07 06:42:36;;;;;;;0.80;0.80;;;;;;;24.02;38.55;100100.34;7658457;32;38829;-74
2022/08/07 06:46:52;;;;;;;3.47;1.00;;;;;;;24.64;38.35;100097.25;7622274;32;37619;-76
2022/08/07 06:51:30;;;;;;;4.10;0.82;;;;;;;24.54;37.35;100095.78;7632387;32;40099;-76
2022/08/07 06:55:49;;;;;;;3.92;1.35;;;;;;;24.93;37.67;100104.34;7619353;32;39894;-77
2022/08/07 07:00:18;;;;;;;4.37;1.17;;;;;;;25.43;36.20;100099.94;7632021;32;37953;-75
2022/08/07 07:04:36;;;;;;;3.45;1.10;;;;;;;25.68;36.10;100105.22;7619426;32;36597;-76
2022/08/07 07:09:16;;;;;;;1.05;0.80;;;;;;;25.98;34.80;100108.28;7632078;32;39365;-75
2022/08/07 07:13:42;;;;;;;2.62;1.10;;;;;;;25.78;35.04;100101.06;7631432;32;39965;-77
2022/08/07 07:18:18;;;;;;;;;;;;;;;25.73;34.02;100102.16;7621708;32;37702;-78
2022/08/07 07:22:55;;;;;;;2.92;0.80;;;;;;;26.41;34.32;100092.31;7645017;32;37965;-78
2022/08/07 07:27:33;;;;;;;0.88;0.80;;;;;;;26.40;34.05;100092.69;7657488;32;39793;-77
2022/08/07 07:32:11;;;;;;;4.20;1.20;;;;;;;26.69;33.47;100096.03;7646472;32;41291;-75
2022/08/07 07:36:30;;;;;;;8.00;1.30;;;;;;;27.33;33.30;100094.22;7643788;32;37993;-80
2022/08/07 07:40:49;;;;;;;3.10;0.75;;;;;;;27.40;31.76;100090.72;7657727;32;37053;-80
2022/08/07 07:45:06;;;;;;;2.72;1.12;;;;;;;27.22;32.06;100093.25;7630521;32;39306;-75
2022/08/07 07:49:27;;;;;;;2.78;1.02;;;;;;;27.14;32.49;100085.94;7657574;32;39974;-76
2022/08/07 07:54:04;;;;;;;2.05;0.80;;;;;;;27.57;30.97;100086.56;7644433;32;38300;-75
2022/08/07 07:58:27;;;;;;;2.92;1.10;;;;;;;27.73;31.09;100087.16;7646256;32;37200;-78
2022/08/07 08:02:46;;;;;;;8.88;1.15;;;;;;;27.84;30.80;100083.69;7632006;32;39952;-80
2022/08/07 08:07:19;;;;;;;1.45;0.70;;;;;;;27.88;30.73;100082.53;7619630;32;40904;-80
2022/08/07 08:11:52;;;;;;;4.05;1.12;;;;;;;28.05;30.51;100083.16;7630804;32;37828;-80
2022/08/07 08:16:20;;;;;;;4.87;1.30;;;;;;;27.83;29.43;100084.87;7639630;32;37048;-79
2022/08/07 08:20:41;;;;;;;6.35;1.30;;;;;;;28.01;30.56;100087.87;7656991;32;39961;-78
2022/08/07 08:30:08;;;;;;;7.85;1.30;;;;;;;28.21;30.24;100089.31;7655454;32;38207;-75
2022/08/07 08:34:33;;;;;;;3.17;1.23;;;;;;;28.63;29.01;100092.94;7647784;32;37953;-74
2022/08/07 08:38:50;;;;;;;5.10;1.20;;;;;;;28.73;29.21;100088.63;7616733;32;39320;-75
2022/08/07 08:43:18;;;;;;;2.05;1.30;;;;;;;28.84;28.36;100084.69;7630059;32;40178;-76
2022/08/07 08:47:59;;;;;;;2.65;1.10;;;;;;;29.34;28.15;100087.06;7631714;32;37994;-75
2022/08/07 08:52:37;;;;;;;1.62;0.90;;;;;;;29.60;27.68;100073.94;7621738;32;37158;-73
2022/08/07 08:57:15;;;;;;;1.98;1.12;;;;;;;29.68;27.23;100074.78;7633679;32;40090;-75
2022/08/07 09:01:43;;;;;;;7.60;1.37;;;;;;;29.50;28.15;100069.88;7633483;32;40810;-74
2022/08/07 09:06:24;;;;;;;1.70;1.00;;;;;;;30.21;27.00;100074.16;7633285;32;38661;-74
2022/08/07 09:10:43;;;;;;;5.15;1.25;;;;;;;30.33;27.46;100073.75;7624146;32;37614;-81
2022/08/07 09:15:48;;;;;;;2.20;0.98;;;;;;;30.39;26.41;100054.53;7619918;32;39467;-79
2022/08/07 09:20:45;;;;;;;3.83;1.05;;;;;;;30.59;26.60;100057.72;7595676;32;40987;-78
2022/08/07 09:25:19;;;;;;;1.58;1.08;;;;;;;30.79;26.26;100052.50;7633631;32;38067;-77
2022/08/07 09:29:48;;;;;;;1.60;1.30;;;;;;;30.82;25.79;100053.69;7642395;32;36930;-78
2022/08/07 09:34:28;;;;;;;2.08;1.27;;;;;;;30.73;25.88;100051.28;7658113;32;40123;-79
2022/08/07 09:39:03;;;;;;;2.45;0.82;;;;;;;30.97;26.21;100060.94;7659170;32;39949;-78
2022/08/07 09:43:34;;;;;;;1.58;1.10;;;;;;;30.96;25.44;100042.47;7659237;32;38101;-80
2022/08/07 09:48:12;;;;;;;3.70;2.10;;;;;;;30.97;26.09;100049.69;7657848;32;38125;-80
2022/08/07 09:52:43;;;;;;;1.58;1.12;;;;;;;31.05;24.88;100040.03;7642900;32;38890;-81
2022/08/07 09:57:06;;;;;;;2.08;1.00;;;;;;;31.06;25.12;100043.63;7655749;32;39682;-81
2022/08/07 10:01:39;;;;;;;2.40;1.40;;;;;;;31.03;25.93;100036.03;7656054;32;38437;-81
2022/08/07 10:06:33;;;;;;;6.28;1.42;;;;;;;30.91;26.38;100045.66;7646839;32;37421;-80
2022/08/07 10:11:21;;;;;;;2.53;1.30;;;;;;;31.14;25.72;100035.97;7658840;32;39360;-81
2022/08/07 10:16:08;;;;;;;4.32;1.12;;;;;;;31.21;26.52;100035.97;7649103;32;40273;-81
2022/08/07 10:20:32;;;;;;;1.90;1.23;;;;;;;31.33;26.23;100029.88;7645830;32;38053;-81
2022/08/07 10:25:17;;;;;;;2.83;1.23;;;;;;;31.67;26.56;100020.09;7645287;32;37004;-80
2022/08/07 10:29:52;;;;;;;3.03;1.17;;;;;;;31.56;25.20;100012.53;7646561;32;40121;-79
2022/08/07 10:34:32;;;;;;;1.80;1.23;;;;;;;31.71;25.27;100013.22;7658249;32;39890;-80
2022/08/07 10:39:17;;;;;;;1.98;1.20;;;;;;;31.65;25.40;100017.72;7656130;32;38552;-81
2022/08/07 10:43:42;;;;;;;2.97;1.48;;;;;;;31.65;24.63;100009.25;7644987;32;36735;-80
2022/08/07 10:47:58;;;;;;;1.90;1.00;;;;;;;31.03;25.98;99997.41;7644684;32;39132;-81
2022/08/07 10:52:27;;;;;;;7.90;1.83;;;;;;;31.68;25.01;99987.91;7657145;32;39868;-81
2022/08/07 10:57:29;;;;;;;2.28;1.30;;;;;;;31.52;25.21;99994.03;7656102;32;38152;-80
2022/08/07 11:02:15;;;;;;;1.73;1.33;;;;;;;31.92;25.70;99986.13;7637522;32;38169;-82
2022/08/07 11:07:19;;;;;;;4.10;1.30;;;;;;;32.12;25.01;99978.75;7658386;32;39667;-79
2022/08/07 11:12:05;;;;;;;4.15;1.50;;;;;;;31.87;25.30;99978.13;7656731;32;41537;-80
2022/08/07 11:16:40;;;;;;;2.20;1.40;;;;;;;32.41;24.69;99958.78;7645195;32;37899;-80
2022/08/07 11:21:10;;;;;;;;;;;;;;;33.05;24.64;99950.88;7646224;32;36989;-80
2022/08/07 11:25:39;;;;;;;2.08;1.50;;;;;;;33.61;23.12;99945.69;7658430;32;39767;-81
2022/08/07 11:30:10;;;;;;;11.15;1.70;;;;;;;33.77;23.28;99944.28;7658025;32;40033;-80
2022/08/07 11:34:52;;;;;;;2.47;1.60;;;;;;;33.80;23.73;99946.25;7657802;32;37931;-81
2022/08/07 11:39:53;;;;;;;2.30;1.27;;;;;;;33.47;23.25;99943.09;7645271;32;37269;-81
2022/08/07 11:45:00;;;;;;;3.25;1.33;;;;;;;33.65;22.82;99932.31;7657216;32;40191;-81
2022/08/07 11:49:22;;;;;;;1.90;1.23;;;;;;;33.73;22.38;99930.22;7522845;33;40635;-80
2022/08/07 11:54:25;;;;;;;4.78;1.27;;;;;;;33.95;23.79;99929.88;7608181;32;38187;-80
2022/08/07 11:59:19;;;;;;;1.50;1.30;;;;;;;34.89;23.05;99926.19;7645529;32;37018;-81
2022/08/07 12:04:09;;;;;;;3.53;1.30;;;;;;;35.30;22.04;99922.91;7656780;32;39733;-81
2022/08/07 12:08:33;;;;;;;2.45;1.33;;;;;;;34.88;22.71;99918.94;7653946;32;40812;-80
2022/08/07 12:12:59;;;;;;;3.62;1.40;;;;;;;35.91;21.58;99915.84;7642828;32;37943;-80
2022/08/07 12:17:19;;;;;;;6.18;1.60;;;;;;;35.47;21.29;99915.25;7655222;32;37225;-80
2022/08/07 12:21:55;;;;;;;2.35;1.33;;;;;;;35.37;22.59;99916.28;7657433;32;40334;-81
2022/08/07 12:26:37;;;;;;;1.87;1.30;;;;;;;35.47;22.33;99909.56;7649081;32;40359;-80
2022/08/07 12:31:18;;;;;;;6.45;1.70;;;;;;;35.70;21.46;99905.00;7645359;32;37958;-81
2022/08/07 12:35:39;;;;;;;1.73;1.40;;;;;;;35.49;21.66;99909.94;7645020;32;36878;-81
2022/08/07 12:40:03;;;;;;;2.35;1.55;;;;;;;35.30;22.08;99905.12;7644835;32;40138;-81
2022/08/07 12:44:24;;;;;;;4.12;1.60;;;;;;;35.60;22.55;99901.19;7658931;32;39929;-81
2022/08/07 12:49:19;;;;;;;2.50;1.40;;;;;;;35.46;21.94;99907.19;7658739;32;37854;-80
2022/08/07 12:54:05;;;;;;;10.32;1.70;;;;;;;35.84;22.12;99893.34;7659349;32;37389;-75
2022/08/07 12:58:44;;;;;;;5.00;1.65;;;;;;;35.87;21.21;99888.81;7648523;32;40507;-78
2022/08/07 13:03:32;;;;;;;2.97;1.50;;;;;;;35.01;21.81;99890.75;7659761;32;39893;-76
2022/08/07 13:08:20;;;;;;;2.28;1.67;;;;;;;35.28;22.61;99891.38;7649879;32;39134;-81
2022/08/07 13:13:02;;;;;;;2.90;1.55;;;;;;;35.62;21.82;99886.59;7656564;32;37029;-80
2022/08/07 13:17:39;;;;;;;4.18;1.70;;;;;;;35.03;21.29;99894.75;7645274;32;40107;-82
2022/08/07 13:22:08;;;;;;;4.28;1.50;;;;;;;35.25;23.16;99885.81;7658655;32;38675;-82
2022/08/07 13:27:11;;;;;;;3.30;1.70;;;;;;;35.49;22.08;99877.97;7646291;32;38144;-81
2022/08/07 13:31:53;;;;;;;3.10;1.40;;;;;;;35.73;21.39;99875.78;7657105;32;37014;-81
2022/08/07 13:36:38;;;;;;;3.97;1.85;;;;;;;36.01;21.71;99879.16;7638871;32;39316;-82
2022/08/07 13:41:52;;;;;;;4.00;1.70;;;;;;;35.85;21.56;99875.06;7646307;32;40079;-81
2022/08/07 13:46:12;;;;;;;8.75;2.05;;;;;;;36.59;20.75;99867.88;7537525;33;38004;-83
2022/08/07 13:50:42;;;;;;;3.03;1.85;;;;;;;36.83;20.81;99859.09;7607128;32;37825;-82
2022/08/07 13:55:18;;;;;;;3.50;1.80;;;;;;;36.59;20.65;99853.66;7647263;32;39434;-81
2022/08/07 13:59:51;;;;;;;3.42;1.80;;;;;;;37.03;20.20;99851.19;7645769;32;40020;-81
2022/08/07 14:04:13;;;;;;;2.28;1.60;;;;;;;37.09;19.05;99840.03;7656883;32;38799;-81
2022/08/07 14:08:32;;;;;;;3.90;1.50;;;;;;;36.82;20.12;99834.78;7644636;32;36871;-83
2022/08/07 14:13:02;;;;;;;2.42;1.42;;;;;;;36.79;19.49;99833.66;7644445;32;39498;-82
2022/08/07 14:17:21;;;;;;;5.05;1.60;;;;;;;37.34;19.52;99839.28;7657870;32;40166;-83
2022/08/07 14:21:58;;;;;;;2.72;1.60;;;;;;;37.06;20.12;99834.47;7646640;32;38170;-84
2022/08/07 14:26:39;;;;;;;1.70;1.42;;;;;;;37.39;19.81;99827.34;7656416;32;36786;-83
2022/08/07 14:31:06;;;;;;;2.67;1.70;;;;;;;37.75;20.07;99825.37;7643847;32;39730;-82
2022/08/07 14:35:30;;;;;;;1.73;1.60;;;;;;;37.87;18.95;99816.03;7658622;32;40872;-82
2022/08/07 14:40:03;;;;;;;3.20;1.70;;;;;;;37.89;19.25;99807.81;7658327;32;38489;-83
2022/08/07 14:44:48;;;;;;;2.85;1.83;;;;;;;37.66;18.98;99811.88;7639345;32;37622;-83
2022/08/07 14:49:06;;;;;;;3.12;1.80;;;;;;;38.00;18.23;99807.47;7645414;32;39900;-83
2022/08/07 14:53:44;;;;;;;4.10;1.80;;;;;;;37.52;18.71;99804.59;7645327;32;40983;-82
2022/08/07 14:58:30;;;;;;;7.55;2.00;;;;;;;37.28;20.20;99809.06;7645008;32;37972;-84
2022/08/07 15:02:47;;;;;;;2.97;1.70;;;;;;;37.53;19.32;99803.34;7634135;32;37053;-83
2022/08/07 15:07:20;;;;;;;6.97;1.90;;;;;;;37.61;20.50;99803.09;7656306;32;39413;-85
2022/08/07 15:11:59;;;;;;;2.37;1.67;;;;;;;37.47;19.88;99805.16;7641228;32;39984;-83
2022/08/07 15:16:17;;;;;;;3.95;1.80;;;;;;;37.57;19.24;99798.31;7644619;32;37401;-83
2022/08/07 15:20:49;;;;;;;5.53;1.90;;;;;;;37.87;18.83;99792.47;7654976;32;37806;-85
2022/08/07 15:25:11;;;;;;;;;;;;;;;38.12;19.35;99783.09;7653809;32;39980;-83
2022/08/07 15:29:41;;;;;;;4.22;1.80;;;;;;;38.00;19.04;99784.69;7655541;32;41007;-83
2022/08/07 15:34:19;;;;;;;3.15;2.00;;;;;;;37.09;20.41;99793.81;7643443;32;39325;-84
2022/08/07 15:38:42;;;;;;;6.35;1.83;;;;;;;37.24;19.38;99780.75;7643525;32;37032;-82
2022/08/07 15:43:18;;;;;;;2.85;1.83;;;;;;;36.59;20.33;99782.69;7654675;32;39268;-84
2022/08/07 15:48:12;;;;;;;2.42;1.80;;;;;;;36.42;20.35;99772.66;7643297;32;40231;-82
2022/08/07 15:52:36;;;;;;;3.22;1.70;;;;;;;36.49;20.87;99766.78;7606958;32;38399;-82
2022/08/07 15:56:58;;;;;;;3.87;2.00;;;;;;;36.66;19.82;99771.13;7630489;32;36798;-83
2022/08/07 16:01:21;;;;;;;6.43;2.35;;;;;;;36.47;20.67;99761.53;7609971;32;39910;-82
2022/08/07 16:05:53;;;;;;;10.10;2.12;;;;;;;36.28;20.54;99771.81;7630548;32;40274;-81
2022/08/07 16:10:19;;;;;;;3.95;2.12;;;;;;;36.39;20.30;99756.53;7630266;32;37917;-82
2022/08/07 16:14:44;;;;;;;7.47;2.25;;;;;;;36.21;21.19;99766.34;7636596;32;38117;-82
2022/08/07 16:19:40;;;;;;;4.43;2.08;;;;;;;35.95;20.88;99768.28;7656449;32;40206;-83
2022/08/07 16:24:29;;;;;;;5.95;1.98;;;;;;;35.99;20.42;99768.19;7641239;32;40007;-82
2022/08/07 16:29:18;;;;;;;3.50;1.80;;;;;;;36.00;21.10;99770.56;7656493;32;36893;-84
2022/08/07 16:33:59;;;;;;;4.00;2.35;;;;;;;35.70;20.89;99768.91;7649533;32;37320;-82
2022/08/07 16:38:46;;;;;;;3.90;2.00;;;;;;;35.58;21.01;99773.25;7643565;32;39313;-77
2022/08/07 16:43:54;;;;;;;2.97;1.95;;;;;;;35.69;21.19;99768.12;7646025;32;39716;-76
2022/08/07 16:48:28;;;;;;;4.10;1.62;;;;;;;35.05;22.07;99770.50;7654757;32;38788;-81
2022/08/07 16:53:14;;;;;;;4.22;2.12;;;;;;;34.57;22.42;99769.91;7654234;32;37279;-80
2022/08/07 16:58:05;;;;;;;4.40;2.00;;;;;;;34.29;22.58;99778.97;7655603;32;40584;-81
2022/08/07 17:02:41;;;;;;;2.30;1.77;;;;;;;34.05;23.30;99773.37;7656036;32;40725;-82
2022/08/07 17:07:30;;;;;;;3.40;2.10;;;;;;;34.02;23.35;99775.00;7656368;32;38790;-82
2022/08/07 17:12:18;;;;;;;3.28;2.10;;;;;;;33.58;23.87;99776.19;7649260;32;38214;-81
2022/08/07 17:16:59;;;;;;;4.15;2.10;;;;;;;33.43;24.06;99784.91;7654667;32;39319;-78
2022/08/07 17:21:20;;;;;;;4.03;2.05;;;;;;;33.45;23.75;99781.66;7635558;32;38977;-79
2022/08/07 17:26:00;;;;;;;2.15;1.65;;;;;;;33.51;23.97;99782.75;7659452;32;37899;-80
2022/08/07 17:30:17;;;;;;;6.97;2.00;;;;;;;33.24;24.71;99783.59;7645365;32;37026;-76
2022/08/07 17:34:41;;;;;;;1.87;1.75;;;;;;;33.12;24.78;99781.34;7633296;32;38213;-76
2022/08/07 17:39:24;;;;;;;2.60;1.90;;;;;;;32.75;25.23;99775.41;7632475;32;40339;-78
2022/08/07 17:44:10;;;;;;;9.77;2.40;;;;;;;32.64;25.88;99776.78;7627434;32;38211;-77
2022/08/07 17:49:21;;;;;;;7.68;2.50;;;;;;;32.52;26.79;99790.19;7653714;32;38459;-77
2022/08/07 17:53:56;;;;;;;3.37;1.80;;;;;;;32.33;26.41;99788.78;7644360;32;39359;-77
2022/08/07 17:58:43;;;;;;;5.20;2.30;;;;;;;32.23;26.77;99798.19;7657454;32;39948;-77
2022/08/07 18:03:42;;;;;;;4.60;2.00;;;;;;;31.90;27.49;99794.06;7657943;32;37871;-77
2022/08/07 18:08:41;;;;;;;3.28;2.00;;;;;;;31.80;28.02;99807.84;7611628;32;38102;-76
2022/08/07 18:13:52;;;;;;;7.68;2.30;;;;;;;31.76;27.75;99812.72;7623704;32;38484;-77
2022/08/07 18:18:18;;;;;;;9.43;2.22;;;;;;;31.28;28.68;99816.28;7640292;32;160866;-76
2022/08/07 18:23:03;;;;;;;8.20;2.35;;;;;;;31.14;29.30;99836.09;7620660;32;37852;-74
2022/08/07 18:27:25;;;;;;;4.28;2.00;;;;;;;30.61;30.37;99838.69;7619478;32;37867;-78
2022/08/07 18:32:25;;;;;;;3.12;1.90;;;;;;;30.55;30.85;99834.72;7641369;32;39930;-79
2022/08/07 18:36:51;;;;;;;4.30;2.00;;;;;;;30.42;31.32;99844.81;7656799;32;39968;-77
2022/08/07 18:41:27;;;;;;;2.67;1.77;;;;;;;30.13;31.60;99842.00;7653359;32;37900;-77
2022/08/07 18:46:16;;;;;;;4.33;2.20;;;;;;;29.71;32.58;99843.63;7632363;32;37697;-77
2022/08/07 18:51:01;;;;;;;14.57;2.72;;;;;;;29.56;32.35;99854.06;7620315;32;40138;-76
2022/08/07 18:56:01;;;;;;;5.28;2.03;;;;;;;29.25;33.32;99853.59;7653834;32;39948;-80
2022/08/07 19:00:22;;;;;;;2.70;1.95;;;;;;;29.14;34.06;99864.78;7640865;32;37935;-78
2022/08/07 19:05:01;;;;;;;8.30;1.90;;;;;;;28.96;34.20;99867.53;7657369;32;37296;-77
2022/08/07 19:09:41;;;;;;;3.37;1.87;;;;;;;28.89;34.10;99870.31;7656817;32;38941;-80
2022/08/07 19:14:22;;;;;;;2.85;1.92;;;;;;;28.94;33.95;99877.53;7655107;32;40033;-76
2022/08/07 19:18:51;;;;;;;6.62;2.00;;;;;;;28.74;34.07;99875.06;7655352;32;38722;-76
2022/08/07 19:23:24;;;;;;;2.97;1.85;;;;;;;28.56;34.90;99879.75;7655945;32;38022;-76
2022/08/07 19:28:12;;;;;;;3.15;1.90;;;;;;;28.44;35.22;99892.06;7645578;32;39637;-76
2022/08/07 19:32:50;;;;;;;4.45;1.70;;;;;;;28.25;35.44;99898.75;7654709;32;40739;-76
2022/08/07 19:37:16;;;;;;;1.92;1.52;;;;;;;28.25;35.19;99905.19;7643596;32;38572;-77
2022/08/07 19:41:45;;;;;;;4.05;2.00;;;;;;;28.14;35.14;99911.91;7650752;32;35992;-76
2022/08/07 19:46:32;;;;;;;3.65;2.08;;;;;;;28.05;35.47;99915.81;7641834;32;40547;-77
2022/08/07 19:50:50;;;;;;;4.72;1.90;;;;;;;27.83;35.87;99914.00;7640511;32;39920;-78
2022/08/07 19:55:12;;;;;;;4.97;2.05;;;;;;;27.59;36.51;99918.97;7655275;32;38682;-79
2022/08/07 19:59:34;;;;;;;5.15;2.20;;;;;;;27.60;37.32;99919.78;7656080;32;36761;-79
2022/08/07 20:03:56;;;;;;;4.37;1.83;;;;;;;27.71;37.41;99932.69;7643741;32;39948;-79
2022/08/07 20:08:18;;;;;;;4.03;2.00;;;;;;;27.54;37.53;99931.34;7638824;32;40820;-82
2022/08/07 20:12:37;;;;;;;4.50;2.03;;;;;;;27.42;39.04;99937.19;7658099;32;37999;-78
2022/08/07 20:16:58;;;;;;;2.85;1.80;;;;;;;27.52;38.03;99944.88;7653631;32;37114;-78
2022/08/07 20:21:19;;;;;;;7.45;2.17;;;;;;;27.48;38.04;99941.25;7642475;32;38146;-78
2022/08/07 20:25:38;;;;;;;6.53;2.28;;;;;;;27.29;38.43;99952.66;7641974;32;39767;-76
2022/08/07 20:30:06;;;;;;;2.92;2.08;;;;;;;27.34;38.19;99953.09;7643695;32;37914;-78
2022/08/07 20:34:28;;;;;;;2.85;1.90;;;;;;;27.16;38.42;99952.03;7655705;32;36789;-78
2022/08/07 20:39:04;;;;;;;4.03;2.12;;;;;;;27.19;38.27;99950.50;7618677;32;39422;-75
2022/08/07 20:43:41;;;;;;;2.75;1.95;;;;;;;26.82;38.88;99952.00;7618860;32;40168;-75
2022/08/07 20:48:04;;;;;;;3.73;1.70;;;;;;;26.93;38.73;99954.94;7620804;32;37895;-76
2022/08/07 20:52:22;;;;;;;2.35;1.67;;;;;;;26.75;39.25;99949.91;7620376;32;37812;-77
2022/08/07 20:56:51;;;;;;;4.95;2.10;;;;;;;26.59;39.32;99958.44;7633634;32;40114;-75
2022/08/07 21:01:11;;;;;;;2.37;1.80;;;;;;;26.54;39.43;99964.34;7620748;32;40044;-77
2022/08/07 21:05:40;;;;;;;3.08;1.90;;;;;;;26.51;39.96;99970.72;7637330;32;37994;-74
2022/08/07 21:10:16;;;;;;;2.60;1.92;;;;;;;26.24;40.17;99962.28;7648213;32;36988;-77
2022/08/07 21:14:42;;;;;;;2.72;1.85;;;;;;;26.09;40.36;99960.44;7659759;32;39503;-76